createdAt,value
2023-05-24T00:00:31.741Z,1.70
2023-05-24T00:03:35.056Z,2.13
2023-05-24T00:06:38.378Z,1.67
2023-05-24T00:09:41.119Z,1.90
2023-05-24T00:12:45.386Z,2.03
2023-05-24T00:15:48.176Z,2.20
2023-05-24T00:18:52.186Z,1.60
2023-05-24T00:21:55.562Z,1.60
2023-05-24T00:24:58.326Z,1.80
2023-05-24T00:28:02.711Z,1.90
2023-05-24T00:31:05.560Z,1.60
2023-05-24T00:34:08.689Z,1.65
2023-05-24T00:37:12.398Z,1.67
2023-05-24T00:40:15.373Z,1.90
2023-05-24T00:43:19.736Z,1.70
2023-05-24T00:46:27.342Z,1.85
2023-05-24T00:49:30.442Z,1.45
2023-05-24T00:52:33.558Z,1.90
2023-05-24T00:55:36.635Z,1.80
2023-05-24T00:58:41.193Z,2.03
2023-05-24T01:01:46.913Z,1.25
2023-05-24T01:04:50.103Z,1.50
2023-05-24T01:08:05.248Z,2.03
2023-05-24T01:11:16.402Z,1.40
2023-05-24T01:14:27.513Z,2.00
2023-05-24T01:17:34.001Z,1.80
2023-05-24T01:20:39.214Z,1.90
2023-05-24T01:23:48.733Z,1.87
2023-05-24T01:27:08.870Z,1.60
2023-05-24T01:30:13.225Z,1.80
2023-05-24T01:33:16.682Z,1.73
2023-05-24T01:36:19.575Z,2.25
2023-05-24T01:39:23.811Z,1.63
2023-05-24T01:42:35.346Z,1.50
2023-05-24T01:48:39.357Z,1.80
2023-05-24T01:51:50.447Z,1.60
2023-05-24T01:54:54.466Z,2.00
2023-05-24T01:58:01.838Z,1.90
2023-05-24T02:01:05.055Z,1.85
2023-05-24T02:04:09.280Z,1.87
2023-05-24T02:07:12.109Z,1.58
2023-05-24T02:10:14.975Z,2.08
2023-05-24T02:13:18.316Z,1.65
2023-05-24T02:16:23.913Z,1.60
2023-05-24T02:19:28.060Z,1.77
2023-05-24T02:22:30.985Z,1.50
2023-05-24T02:25:34.262Z,1.77
2023-05-24T02:28:37.018Z,1.98
2023-05-24T02:31:40.015Z,1.67
2023-05-24T02:34:44.186Z,1.70
2023-05-24T02:37:47.154Z,1.95
2023-05-24T02:40:50.008Z,2.00
2023-05-24T02:43:52.972Z,1.80
2023-05-24T02:46:55.873Z,1.88
2023-05-24T02:50:00.097Z,2.17
2023-05-24T02:53:02.991Z,2.10
2023-05-24T02:56:07.399Z,1.50
2023-05-24T02:59:10.161Z,1.90
2023-05-24T03:02:14.973Z,1.60
2023-05-24T03:05:19.481Z,1.40
2023-05-24T03:08:22.370Z,2.20
2023-05-24T03:11:26.166Z,2.08
2023-05-24T03:14:29.169Z,2.30
2023-05-24T03:17:31.962Z,2.20
2023-05-24T03:20:36.239Z,2.30
2023-05-24T03:23:39.068Z,2.22
2023-05-24T03:26:41.863Z,2.05
2023-05-24T03:29:44.755Z,2.30
2023-05-24T03:32:47.781Z,1.77
2023-05-24T03:35:51.944Z,2.10
2023-05-24T03:38:55.044Z,2.60
2023-05-24T03:41:57.789Z,1.85
2023-05-24T03:45:00.706Z,2.28
2023-05-24T03:48:03.608Z,2.10
2023-05-24T03:51:09.345Z,1.95
2023-05-24T03:54:12.272Z,1.73
2023-05-24T03:57:15.060Z,1.85
2023-05-24T04:00:18.360Z,2.30
2023-05-24T04:03:21.290Z,2.60
2023-05-24T04:06:29.210Z,1.70
2023-05-24T04:09:33.761Z,2.47
2023-05-24T04:12:36.722Z,2.40
2023-05-24T04:15:39.574Z,2.33
2023-05-24T04:18:42.423Z,2.25
2023-05-24T04:21:46.880Z,2.03
2023-05-24T04:24:49.890Z,2.30
2023-05-24T04:27:52.698Z,1.95
2023-05-24T04:30:57.807Z,2.30
2023-05-24T04:34:00.644Z,2.22
2023-05-24T04:37:05.081Z,2.83
2023-05-24T04:40:09.452Z,2.13
2023-05-24T04:43:12.253Z,2.45
2023-05-24T04:46:15.091Z,2.40
2023-05-24T04:49:17.913Z,2.10
2023-05-24T04:52:22.234Z,2.85
2023-05-24T04:55:25.186Z,2.40
2023-05-24T04:58:27.945Z,2.60
2023-05-24T05:01:31.177Z,2.70
2023-05-24T05:04:33.996Z,3.30
2023-05-24T05:07:38.544Z,2.67
2023-05-24T05:10:41.637Z,2.75
2023-05-24T05:13:44.571Z,2.97
2023-05-24T05:16:47.612Z,2.97
2023-05-24T05:19:50.619Z,2.83
2023-05-24T05:22:54.804Z,2.55
2023-05-24T05:25:57.982Z,3.17
2023-05-24T05:29:00.881Z,2.33
2023-05-24T05:32:03.860Z,2.88
2023-05-24T05:35:07.733Z,3.10
2023-05-24T05:38:11.838Z,3.20
2023-05-24T05:41:14.588Z,2.83
2023-05-24T05:44:17.483Z,2.55
2023-05-24T05:47:20.470Z,2.95
2023-05-24T05:50:23.302Z,2.50
2023-05-24T05:53:27.542Z,3.30
2023-05-24T05:56:30.475Z,2.55
2023-05-24T05:59:35.977Z,2.55
2023-05-24T06:02:39.103Z,2.70
2023-05-24T06:05:42.594Z,2.97
2023-05-24T06:08:46.754Z,2.83
2023-05-24T06:11:49.558Z,2.55
2023-05-24T06:14:52.449Z,2.20
2023-05-24T06:17:55.539Z,2.65
2023-05-24T06:20:58.456Z,2.73
2023-05-24T06:24:02.747Z,2.40
2023-05-24T06:27:06.332Z,3.28
2023-05-24T06:30:10.216Z,2.67
2023-05-24T06:33:13.219Z,3.28
2023-05-24T06:36:15.980Z,3.00
2023-05-24T06:39:21.017Z,3.08
2023-05-24T06:42:23.945Z,3.22
2023-05-24T06:45:26.774Z,3.10
2023-05-24T06:48:29.808Z,3.38
2023-05-24T06:51:34.511Z,3.67
2023-05-24T06:54:38.750Z,2.83
2023-05-24T06:57:41.756Z,3.33
2023-05-24T07:00:46.007Z,3.30
2023-05-24T07:03:49.144Z,3.28
2023-05-24T07:06:52.080Z,3.30
2023-05-24T07:09:56.486Z,3.22
2023-05-24T07:12:59.390Z,3.30
2023-05-24T07:16:02.161Z,2.80
2023-05-24T07:19:05.231Z,3.03
2023-05-24T07:22:08.186Z,3.73
2023-05-24T07:25:12.834Z,2.80
2023-05-24T07:28:19.796Z,2.80
2023-05-24T07:31:22.911Z,2.67
2023-05-24T07:34:27.729Z,3.10
2023-05-24T07:37:31.124Z,3.03
2023-05-24T07:40:35.403Z,3.60
2023-05-24T07:43:38.426Z,3.50
2023-05-24T07:46:41.359Z,3.53
2023-05-24T07:49:44.379Z,3.22
2023-05-24T07:52:47.176Z,3.13
2023-05-24T07:55:51.747Z,3.80
2023-05-24T07:58:59.310Z,3.90
2023-05-24T08:02:05.491Z,3.25
2023-05-24T08:05:10.186Z,3.40
2023-05-24T08:08:13.983Z,3.47
2023-05-24T08:11:18.332Z,3.22
2023-05-24T08:14:21.733Z,3.70
2023-05-24T08:17:24.569Z,3.55
2023-05-24T08:20:27.548Z,3.47
2023-05-24T08:23:30.882Z,3.47
2023-05-24T08:26:35.041Z,2.72
2023-05-24T08:29:38.751Z,3.88
2023-05-24T08:32:41.644Z,3.45
2023-05-24T08:35:44.783Z,3.15
2023-05-24T08:38:47.751Z,2.93
2023-05-24T08:42:08.121Z,2.83
2023-05-24T08:45:13.964Z,3.47
2023-05-24T08:48:18.208Z,3.10
2023-05-24T08:51:21.914Z,2.88
2023-05-24T08:54:24.771Z,3.00
2023-05-24T08:57:30.821Z,2.78
2023-05-24T09:00:33.639Z,2.67
2023-05-24T09:03:37.992Z,2.92
2023-05-24T09:06:41.413Z,3.10
2023-05-24T09:09:48.106Z,2.77
2023-05-24T09:12:56.501Z,2.60
2023-05-24T09:16:01.126Z,2.90
2023-05-24T09:19:04.220Z,2.53
2023-05-24T09:22:08.093Z,2.75
2023-05-24T09:25:12.054Z,3.20
2023-05-24T09:28:17.815Z,2.83
2023-05-24T09:31:20.679Z,2.67
2023-05-24T09:34:23.496Z,2.73
2023-05-24T09:37:32.377Z,2.72
2023-05-24T09:40:35.882Z,2.78
2023-05-24T09:43:49.568Z,3.00
2023-05-24T09:46:52.721Z,2.58
2023-05-24T09:49:55.530Z,2.40
2023-05-24T09:52:58.469Z,2.20
2023-05-24T09:56:01.754Z,2.40
2023-05-24T09:59:10.144Z,1.98
2023-05-24T10:02:13.674Z,2.03
2023-05-24T10:05:16.723Z,1.83
2023-05-24T10:08:20.397Z,2.20
2023-05-24T10:11:23.206Z,1.90
2023-05-24T10:14:29.214Z,1.92
2023-05-24T10:17:32.349Z,2.30
2023-05-24T10:20:35.487Z,2.50
2023-05-24T10:23:40.275Z,2.05
2023-05-24T10:26:43.469Z,2.42
2023-05-24T10:30:00.219Z,2.05
2023-05-24T10:33:05.071Z,1.75
2023-05-24T10:36:10.854Z,1.80
2023-05-24T10:39:14.355Z,2.25
2023-05-24T10:42:17.987Z,2.20
2023-05-24T10:45:37.659Z,1.95
2023-05-24T10:48:41.466Z,2.20
2023-05-24T10:51:44.532Z,2.00
2023-05-24T10:55:05.016Z,1.75
2023-05-24T10:58:08.481Z,2.03
2023-05-24T11:01:14.969Z,1.92
2023-05-24T11:04:19.697Z,1.70
2023-05-24T11:07:22.690Z,2.17
2023-05-24T11:10:32.041Z,1.80
2023-05-24T11:13:34.963Z,1.88
2023-05-24T11:16:40.463Z,2.10
2023-05-24T11:19:48.317Z,2.35
2023-05-24T11:22:51.928Z,2.10
2023-05-24T11:25:54.753Z,1.88
2023-05-24T11:28:58.303Z,2.90
2023-05-24T11:32:05.307Z,2.03
2023-05-24T11:35:11.452Z,2.00
2023-05-24T11:38:15.334Z,1.87
2023-05-24T11:41:18.938Z,1.83
2023-05-24T11:44:21.826Z,2.25
2023-05-24T11:47:26.086Z,2.28
2023-05-24T11:50:29.006Z,2.22
2023-05-24T11:53:33.986Z,2.13
2023-05-24T11:56:38.152Z,1.88
2023-05-24T11:59:42.979Z,2.13
2023-05-24T12:02:49.397Z,2.45
2023-05-24T12:05:52.789Z,1.95
2023-05-24T12:08:55.751Z,2.10
2023-05-24T12:11:59.042Z,2.05
2023-05-24T12:15:02.234Z,2.00
2023-05-24T12:18:06.498Z,2.17
2023-05-24T12:21:11.698Z,2.20
2023-05-24T12:24:16.239Z,2.20
2023-05-24T12:27:18.978Z,2.25
2023-05-24T12:30:24.252Z,2.50
2023-05-24T12:33:29.389Z,2.00
2023-05-24T12:36:32.401Z,2.58
2023-05-24T12:39:37.997Z,2.83
2023-05-24T12:42:40.766Z,2.28
2023-05-24T12:45:43.657Z,2.38
2023-05-24T12:48:48.166Z,2.25
2023-05-24T12:51:51.351Z,2.20
2023-05-24T12:54:54.292Z,2.30
2023-05-24T12:57:58.876Z,2.05
2023-05-24T13:01:01.864Z,1.98
2023-05-24T13:04:06.483Z,1.90
2023-05-24T13:07:09.340Z,2.13
2023-05-24T13:10:12.801Z,2.00
2023-05-24T13:13:15.882Z,2.00
2023-05-24T13:16:20.121Z,2.30
2023-05-24T13:19:24.468Z,2.22
2023-05-24T13:22:27.286Z,1.98
2023-05-24T13:25:30.423Z,2.07
2023-05-24T13:28:35.165Z,2.10
2023-05-24T13:31:38.566Z,2.10
2023-05-24T13:34:43.320Z,2.28
2023-05-24T13:37:46.167Z,2.40
2023-05-24T13:40:49.597Z,2.07
2023-05-24T13:43:53.434Z,1.90
2023-05-24T13:46:56.766Z,2.17
2023-05-24T13:50:01.093Z,1.98
2023-05-24T13:53:04.999Z,1.98
2023-05-24T13:56:08.513Z,1.77
2023-05-24T13:59:12.950Z,2.30
2023-05-24T14:02:16.515Z,2.38
2023-05-24T14:08:27.118Z,2.37
2023-05-24T14:11:31.732Z,2.10
2023-05-24T14:17:41.149Z,2.13
2023-05-24T14:20:45.603Z,1.90
2023-05-24T14:23:48.440Z,2.28
2023-05-24T14:26:51.229Z,2.00
2023-05-24T14:29:54.090Z,2.37
2023-05-24T14:32:57.021Z,2.10
2023-05-24T14:36:01.319Z,2.15
2023-05-24T14:39:04.273Z,2.10
2023-05-24T14:42:07.389Z,2.40
2023-05-24T14:45:11.537Z,2.13
2023-05-24T14:48:15.106Z,2.40
2023-05-24T14:51:20.629Z,2.35
2023-05-24T14:54:23.474Z,1.95
2023-05-24T14:57:26.422Z,2.13
2023-05-24T15:00:29.218Z,2.00
2023-05-24T15:03:32.370Z,2.30
2023-05-24T15:06:36.894Z,2.20
2023-05-24T15:09:39.639Z,2.33
2023-05-24T15:12:42.682Z,2.30
2023-05-24T15:15:45.454Z,2.70
2023-05-24T15:18:48.343Z,2.37
2023-05-24T15:21:52.647Z,2.17
2023-05-24T15:24:55.446Z,2.08
2023-05-24T15:27:58.354Z,2.13
2023-05-24T15:31:01.924Z,2.80
2023-05-24T15:34:05.479Z,2.20
2023-05-24T15:37:09.762Z,2.28
2023-05-24T15:40:15.062Z,2.50
2023-05-24T15:43:19.708Z,2.20
2023-05-24T15:46:23.052Z,2.30
2023-05-24T15:49:25.892Z,2.40
2023-05-24T15:52:30.046Z,2.10
2023-05-24T15:55:33.673Z,2.35
2023-05-24T15:58:36.632Z,2.60
2023-05-24T16:01:39.387Z,2.43
2023-05-24T16:04:42.291Z,2.10
2023-05-24T16:07:46.539Z,2.72
2023-05-24T16:10:49.277Z,2.22
2023-05-24T16:13:53.620Z,2.30
2023-05-24T16:16:58.609Z,2.60
2023-05-24T16:20:02.046Z,2.50
2023-05-24T16:23:06.384Z,2.47
2023-05-24T16:26:09.153Z,2.22
2023-05-24T16:29:13.335Z,2.58
2023-05-24T16:32:16.344Z,2.40
2023-05-24T16:35:19.364Z,2.83
2023-05-24T16:38:23.767Z,2.50
2023-05-24T16:41:27.214Z,2.30
2023-05-24T16:44:30.212Z,2.50
2023-05-24T16:47:33.199Z,2.97
2023-05-24T16:50:36.395Z,2.40
2023-05-24T16:53:40.564Z,2.70
2023-05-24T16:56:43.545Z,2.50
2023-05-24T16:59:50.596Z,2.63
2023-05-24T17:02:54.652Z,2.60
2023-05-24T17:06:03.382Z,2.40
2023-05-24T17:09:08.232Z,2.42
2023-05-24T17:12:11.007Z,2.50
2023-05-24T17:15:14.094Z,2.58
2023-05-24T17:18:17.186Z,2.50
2023-05-24T17:21:21.240Z,2.20
2023-05-24T17:24:27.781Z,2.80
2023-05-24T17:27:30.578Z,2.63
2023-05-24T17:30:33.468Z,2.30
2023-05-24T17:33:36.596Z,2.70
2023-05-24T17:36:39.641Z,2.50
2023-05-24T17:39:43.988Z,2.55
2023-05-24T17:42:46.807Z,2.35
2023-05-24T17:45:49.708Z,2.47
2023-05-24T17:48:53.032Z,2.50
2023-05-24T17:51:55.837Z,2.50
2023-05-24T17:55:00.112Z,2.45
2023-05-24T17:58:03.863Z,2.50
2023-05-24T18:01:07.911Z,2.72
2023-05-24T18:04:11.140Z,2.58
2023-05-24T18:07:15.184Z,2.50
2023-05-24T18:10:19.724Z,2.10
2023-05-24T18:13:22.672Z,2.10
2023-05-24T18:16:25.802Z,2.50
2023-05-24T18:19:29.408Z,2.80
2023-05-24T18:22:32.332Z,2.47
2023-05-24T18:25:36.730Z,2.15
2023-05-24T18:28:41.825Z,2.33
2023-05-24T18:31:44.793Z,2.30
2023-05-24T18:34:47.694Z,2.13
2023-05-24T18:37:50.824Z,2.33
2023-05-24T18:40:55.227Z,2.10
2023-05-24T18:43:58.216Z,2.27
2023-05-24T18:47:01.117Z,2.00
2023-05-24T18:50:04.016Z,2.47
2023-05-24T18:53:06.777Z,2.58
2023-05-24T18:56:11.063Z,2.40
2023-05-24T18:59:14.021Z,2.30
2023-05-24T19:02:17.060Z,2.22
2023-05-24T19:05:21.210Z,2.70
2023-05-24T19:08:24.106Z,2.38
2023-05-24T19:11:28.251Z,2.50
2023-05-24T19:14:31.263Z,2.33
2023-05-24T19:17:34.307Z,2.30
2023-05-24T19:20:37.459Z,2.42
2023-05-24T19:23:42.235Z,2.45
2023-05-24T19:26:46.696Z,2.28
2023-05-24T19:29:49.463Z,2.30
2023-05-24T19:32:52.400Z,2.25
2023-05-24T19:35:55.154Z,2.60
2023-05-24T19:38:58.054Z,2.70
2023-05-24T19:42:02.923Z,2.47
2023-05-24T19:45:06.818Z,2.43
2023-05-24T19:48:10.004Z,2.60
2023-05-24T19:51:14.249Z,2.85
2023-05-24T19:54:16.967Z,2.92
2023-05-24T19:57:21.244Z,2.55
2023-05-24T20:00:24.010Z,2.50
2023-05-24T20:03:27.491Z,2.55
2023-05-24T20:06:31.411Z,2.75
2023-05-24T20:09:34.343Z,3.10
2023-05-24T20:12:38.663Z,3.03
2023-05-24T20:15:41.738Z,2.80
2023-05-24T20:18:44.591Z,2.92
2023-05-24T20:21:47.994Z,2.80
2023-05-24T20:24:51.183Z,2.67
2023-05-24T20:27:55.544Z,2.47
2023-05-24T20:30:58.570Z,2.90
2023-05-24T20:34:01.587Z,3.13
2023-05-24T20:37:04.842Z,2.80
2023-05-24T20:40:09.618Z,3.30
2023-05-24T20:43:14.102Z,4.15
2023-05-24T20:46:17.224Z,2.83
2023-05-24T20:49:20.170Z,3.28
2023-05-24T20:52:22.902Z,2.77
2023-05-24T20:55:26.975Z,3.20
2023-05-24T20:58:31.973Z,2.67
2023-05-24T21:01:35.049Z,2.97
2023-05-24T21:04:37.882Z,3.00
2023-05-24T21:07:40.874Z,3.00
2023-05-24T21:10:43.730Z,2.80
2023-05-24T21:13:48.017Z,3.05
2023-05-24T21:16:50.834Z,3.30
2023-05-24T21:19:53.824Z,2.97
2023-05-24T21:22:56.894Z,3.37
2023-05-24T21:25:59.893Z,2.95
2023-05-24T21:29:04.166Z,3.15
2023-05-24T21:32:07.072Z,3.40
2023-05-24T21:35:10.254Z,3.15
2023-05-24T21:38:13.204Z,3.67
2023-05-24T21:41:15.994Z,3.58
2023-05-24T21:44:20.427Z,3.70
2023-05-24T21:47:23.266Z,3.13
2023-05-24T21:50:26.246Z,3.38
2023-05-24T21:53:29.022Z,3.43
2023-05-24T21:56:32.017Z,3.33
2023-05-24T21:59:36.168Z,3.60
2023-05-24T22:02:39.209Z,3.40
2023-05-24T22:05:42.128Z,3.63
2023-05-24T22:08:45.056Z,3.30
2023-05-24T22:11:47.885Z,3.35
2023-05-24T22:14:52.210Z,3.85
2023-05-24T22:17:58.714Z,4.00
2023-05-24T22:21:02.109Z,3.33
2023-05-24T22:24:05.184Z,3.70
2023-05-24T22:27:09.639Z,3.45
2023-05-24T22:30:15.435Z,3.67
2023-05-24T22:33:18.470Z,3.30
2023-05-24T22:36:21.408Z,3.53
2023-05-24T22:39:24.688Z,3.27
2023-05-24T22:42:27.546Z,3.40
2023-05-24T22:45:31.731Z,3.60
2023-05-24T22:48:34.770Z,3.60
2023-05-24T22:51:37.634Z,3.50
2023-05-24T22:54:40.697Z,3.60
2023-05-24T22:57:43.786Z,3.45
2023-05-24T23:00:48.215Z,3.85
2023-05-24T23:03:51.120Z,3.33
2023-05-24T23:06:53.883Z,3.33
2023-05-24T23:09:57.120Z,3.80
2023-05-24T23:12:59.934Z,3.88
2023-05-24T23:16:05.616Z,3.47
2023-05-24T23:19:08.411Z,3.53
2023-05-24T23:22:12.587Z,3.55
2023-05-24T23:25:15.403Z,3.70
2023-05-24T23:28:18.478Z,3.53
2023-05-24T23:31:23.219Z,3.72
2023-05-24T23:34:26.281Z,3.53
2023-05-24T23:37:28.995Z,3.58
2023-05-24T23:40:31.929Z,3.60
2023-05-24T23:43:34.930Z,3.72
2023-05-24T23:46:40.841Z,3.25
2023-05-24T23:49:43.673Z,3.83
2023-05-24T23:52:46.917Z,3.38
2023-05-24T23:55:49.884Z,3.67
2023-05-24T23:58:52.998Z,3.72
